Latest Coastal Weather Observations for Mallacoota

IDV60701

Issued at 8:31 pm EST Thursday 5 May 2016 (issued every 10 minutes, with the page automatically refreshed every 10 minutes)

About coastal observations | Map of coastal stations | Coastal observations for VIC | Marine services | Other Formats
Station Details ID: 084084 Name: MALLACOOTA Lat: -37.60 Lon: 149.73 Height: 22.0 m
Data from the previous 72 hours. | See also: Recent months at Mallacoota
Date/Time
EST
Temp

°C
Wind Pressure Rain
since 9am
mm
Weather Cloud Vis
km
Sea
Height
m
Swell
Dir
 
Speed
knots
Gust
knots
hPa Trend Height
m
Period
s
Dir
05/08:30pm 11.9 N 6 8 1015.4 - 0.0 - - - - - - -
05/08:00pm 12.3 NNW 5 7 1015.5 - 0.0 - - - - - - -
05/07:30pm 12.3 NNW 5 7 1015.6 - 0.0 - - - - - - -
05/07:00pm 11.2 NNW 5 6 1015.4 - 0.0 - - - - - - -
05/06:30pm 12.8 N 3 5 1015.3 - 0.0 - - - - - - -
05/06:00pm 13.1 N 5 7 1015.1 - 0.0 - - - - - - -
05/05:30pm 13.9 N 5 6 1015.1 - 0.0 - - - - - - -
05/05:00pm 16.3 NNE 6 10 1015.0 - 0.0 - - - - - - -
05/04:30pm 16.8 NE 8 13 1014.8 - 0.0 - - - - - - -
05/04:00pm 17.3 ENE 11 15 1015.0 - 0.0 - - - - - - -
05/03:30pm 17.5 E 10 15 1015.2 - 0.0 - - - - - - -
05/03:00pm 17.6 E 10 15 1015.4 - 0.0 - - - - - - -
05/02:30pm 17.9 E 9 11 1015.5 - 0.0 - - - - - - -
05/02:00pm 18.3 E 8 10 1015.6 - 0.0 - - - - - - -
05/01:30pm 18.4 E 8 10 1015.7 - 0.0 - - - - - - -
05/01:00pm 18.5 E 5 7 1016.2 - 0.0 - - - - - - -
05/12:30pm 18.5 E 5 6 1016.7 - 0.0 - - - - - - -
05/12:00pm 18.1 ENE 5 6 1017.2 - 0.0 - - - - - - -
05/11:30am 18.2 E 5 8 1017.7 - 0.0 - - - - - - -
05/11:00am 18.7 NNE 4 5 1018.3 - 0.0 - - - - - - -
05/10:30am 17.6 N 5 7 1018.6 - 0.0 - - - - - - -
05/10:00am 15.9 NNW 6 8 1019.0 - 0.0 - - - - - - -
05/09:30am 13.9 NW 6 8 1019.2 - 0.0 - - - - - - -
05/09:00am 12.5 WNW 5 8 1019.5 - 0.2 - - - - - - -
05/08:30am 10.6 NW 8 10 1019.4 - 0.2 - - - - - - -
05/08:00am 8.7 WNW 8 9 1019.3 - 0.2 - - - - - - -
05/07:30am 7.2 WNW 7 10 1019.0 - 0.2 - - - - - - -
05/07:00am 7.0 WNW 8 11 1018.9 - 0.2 - - - - - - -
05/06:30am 6.7 WNW 7 9 1018.6 - 0.2 - - - - - - -
05/06:00am 6.8 WNW 7 10 1018.6 - 0.2 - - - - - - -
05/05:30am 6.8 WNW 6 7 1018.4 - 0.2 - - - - - - -
05/05:00am 6.7 WNW 6 8 1018.2 - 0.2 - - - - - - -
05/04:30am 6.9 WNW 6 8 1018.1 - 0.2 - - - - - - -
05/04:00am 7.1 WNW 6 8 1017.9 - 0.2 - - - - - - -
05/03:30am 7.3 WNW 6 8 1017.8 - 0.2 - - - - - - -
05/03:00am 7.0 N 4 5 1017.9 - 0.2 - - - - - - -
05/02:30am 7.8 WNW 5 7 1017.9 - 0.2 - - - - - - -
05/02:00am 8.3 WNW 6 8 1017.9 - 0.2 - - - - - - -
05/01:30am 8.1 WNW 6 8 1018.0 - 0.2 - - - - - - -
05/01:00am 8.9 W 7 8 1018.0 - 0.2 - - - - - - -
05/12:30am 7.8 NW 6 8 1018.2 - 0.2 - - - - - - -
05/12:00am 8.1 NW 6 8 1018.3 - 0.2 - - - - - - -
 
Date/Time
EST
Temp

°C
Wind Pressure Rain
since 9am
mm
Weather Cloud Vis
km
Sea
Height
m
Swell
Dir
 
Speed
knots
Gust
knots
hPa Trend Height
m
Period
s
Dir
04/11:30pm 8.2 NW 6 8 1018.3 - 0.2 - - - - - - -
04/11:00pm 8.8 NW 6 7 1018.3 - 0.2 - - - - - - -
04/10:30pm 9.7 NW 6 7 1018.5 - 0.2 - - - - - - -
04/10:00pm 10.1 NW 7 9 1018.3 - 0.2 - - - - - - -
04/09:30pm 9.8 NW 7 9 1018.3 - 0.2 - - - - - - -
04/09:00pm 10.1 NW 6 8 1018.2 - 0.2 - - - - - - -
04/08:30pm 10.3 NW 6 8 1018.0 - 0.2 - - - - - - -
04/08:00pm 10.4 NW 6 7 1017.8 - 0.2 - - - - - - -
04/07:30pm 11.0 NW 6 7 1017.6 - 0.2 - - - - - - -
04/07:00pm 11.1 NW 5 6 1017.3 - 0.2 - - - - - - -
04/06:30pm 11.4 NW 5 7 1017.1 - 0.2 - - - - - - -
04/06:00pm 11.9 W 5 6 1016.8 - 0.2 - - - - - - -
04/05:30pm 11.8 W 4 6 1016.3 - 0.2 - - - - - - -
04/05:00pm 13.4 WSW 4 6 1016.0 - 0.2 - - - - - - -
04/04:30pm 14.9 S 7 11 1015.8 - 0.2 - - - - - - -
04/04:00pm 15.2 SSW 7 10 1015.5 - 0.2 - - - - - - -
04/03:30pm 15.7 SSW 10 13 1015.3 - 0.2 - - - - - - -
04/03:00pm 15.2 SSW 10 17 1015.2 - 0.2 - - - - - - -
04/02:30pm 16.0 S 10 15 1014.9 - 0.2 - - - - - - -
04/02:00pm 16.2 S 11 18 1014.5 - 0.2 - - - - - - -
04/01:30pm 16.5 S 11 17 1014.5 - 0.2 - - - - - - -
04/01:00pm 17.2 SSW 9 13 1014.6 - 0.2 - - - - - - -
04/12:30pm 17.2 SSW 9 15 1014.7 - 0.2 - - - - - - -
04/12:00pm 16.7 WSW 8 13 1014.9 - 0.2 - - - - - - -
04/11:30am 16.3 SW 11 20 1015.0 - 0.2 - - - - - - -
04/11:00am 16.1 WSW 10 18 1015.0 - 0.2 - - - - - - -
04/10:30am 15.7 SW 9 17 1014.9 - 0.2 - - - - - - -
04/10:00am 15.1 WSW 8 13 1014.7 - 0.2 - - - - - - -
04/09:30am 14.8 W 8 13 1014.8 - 0.2 - - - - - - -
04/09:00am 13.6 W 6 11 1014.9 - 0.2 - - - - - - -
04/08:30am 12.4 W 6 10 1014.7 - 0.2 - - - - - - -
04/08:00am 12.1 W 6 10 1014.2 - 0.2 - - - - - - -
04/07:30am 11.6 WNW 4 7 1013.5 - 0.2 - - - - - - -
04/07:00am 11.3 WNW 5 8 1013.0 - 0.2 - - - - - - -
04/06:30am 11.2 WNW 5 8 1012.7 - 0.2 - - - - - - -
04/06:00am 11.2 WNW 6 9 1011.9 - 0.2 - - - - - - -
04/05:30am 11.2 WNW 6 9 1011.4 - 0.2 - - - - - - -
04/05:00am 11.1 NW 6 8 1011.0 - 0.2 - - - - - - -
04/04:30am 11.2 WNW 6 10 1010.5 - 0.2 - - - - - - -
04/04:00am 11.3 WNW 6 10 1010.2 - 0.2 - - - - - - -
04/03:30am 11.2 WNW 6 10 1009.8 - 0.2 - - - - - - -
04/03:00am 11.4 W 5 8 1009.7 - 0.2 - - - - - - -
04/02:30am 11.8 W 7 12 1009.3 - 0.2 - - - - - - -
04/02:00am 12.9 W 7 11 1009.0 - 0.0 - - - - - - -
04/01:30am 13.1 W 7 11 1008.7 - 0.0 - - - - - - -
04/01:00am 13.2 WSW 7 11 1008.5 - 0.0 - - - - - - -
04/12:30am 13.9 WSW 9 15 1008.1 - 0.0 - - - - - - -
04/12:00am 13.6 W 6 10 1007.6 - 0.0 - - - - - - -
 
Date/Time
EST
Temp

°C
Wind Pressure Rain
since 9am
mm
Weather Cloud Vis
km
Sea
Height
m
Swell
Dir
 
Speed
knots
Gust
knots
hPa Trend Height
m
Period
s
Dir
03/11:30pm 13.8 WSW 8 15 1007.2 - 0.0 - - - - - - -
03/11:00pm 14.1 WSW 7 10 1007.3 - 0.0 - - - - - - -
03/10:30pm 14.5 SW 9 17 1006.8 - 0.0 - - - - - - -
03/10:00pm 14.8 SW 11 20 1006.6 - 0.0 - - - - - - -
03/09:30pm 14.9 SW 11 18 1006.0 - 0.0 - - - - - - -
03/09:02pm 16.2 SSW 15 27 1005.4 - 0.0 - - - - - - -
03/09:00pm 16.5 SSW 14 27 1005.3 - 0.0 - - - - - - -
03/08:54pm 16.5 SSW 16 24 1005.2 - 0.0 - - - - - - -
03/08:30pm 15.8 N 5 7 1003.3 - 0.0 - - - - - - -
03/08:00pm 16.6 N 4 8 1002.9 - 0.0 - - - - - - -
03/07:30pm 17.6 N 6 9 1002.3 - 0.0 - - - - - - -
03/07:00pm 18.8 N 8 11 1001.8 - 0.0 - - - - - - -
03/06:30pm 18.0 N 6 9 1001.6 - 0.0 - - - - - - -
03/06:00pm 18.0 NNW 5 7 1001.3 - 0.0 - - - - - - -
03/05:30pm 19.4 NNW 4 6 1000.6 - 0.0 - - - - - - -
03/05:00pm 20.9 N 7 13 999.7 - 0.0 - - - - - - -
03/04:30pm 22.9 WNW 2 6 999.3 - 0.0 - - - - - - -
03/04:00pm 23.7 WNW 7 13 999.0 - 0.0 - - - - - - -
03/03:30pm 24.1 NNW 10 18 998.9 - 0.0 - - - - - - -
03/03:00pm 24.6 NNW 8 17 998.8 - 0.0 - - - - - - -
03/02:30pm 24.4 NNW 13 21 998.7 - 0.0 - - - - - - -
03/02:00pm 23.4 NNE 5 9 999.4 - 0.0 - - - - - - -
03/01:30pm 22.9 NNE 10 15 999.8 - 0.0 - - - - - - -
03/01:00pm 22.6 N 8 11 1000.3 - 0.0 - - - - - - -
03/12:30pm 21.2 NNE 9 14 1001.2 - 0.0 - - - - - - -
03/12:00pm 20.4 NNE 7 11 1002.4 - 0.0 - - - - - - -
03/11:30am 20.7 N 10 14 1003.3 - 0.0 - - - - - - -
03/11:00am 20.3 N 9 14 1003.9 - 0.0 - - - - - - -
03/10:30am 19.1 N 9 13 1004.6 - 0.0 - - - - - - -
03/10:00am 17.4 N 8 11 1004.9 - 0.0 - - - - - - -
03/09:30am 15.7 NNW 7 11 1005.4 - 0.0 - - - - - - -
03/09:00am 14.3 N 6 9 1005.6 - 0.0 - - - - - - -
03/08:30am 12.1 N 5 7 1005.8 - 0.0 - - - - - - -
03/08:00am 9.5 NW 5 6 1006.3 - 0.0 - - - - - - -
03/07:30am 7.5 NW 5 7 1006.4 - 0.0 - - - - - - -
03/07:00am 4.9 NW 5 7 1006.8 - 0.0 - - - - - - -
03/06:30am 5.1 WNW 5 6 1006.8 - 0.0 - - - - - - -
03/06:00am 6.3 W 7 9 1006.8 - 0.0 - - - - - - -
03/05:30am 3.9 N 6 9 1006.5 - 0.0 - - - - - - -
03/05:00am 4.6 CALM 0 0 1006.9 - 0.0 - - - - - - -
03/04:30am 4.7 WSW 3 5 1006.9 - 0.0 - - - - - - -
03/04:00am 5.5 CALM 0 3 1007.1 - 0.0 - - - - - - -
03/03:30am 8.0 NNW 7 9 1007.0 - 0.0 - - - - - - -
03/03:00am 8.3 NNW 8 10 1007.2 - 0.0 - - - - - - -
03/02:30am 7.7 NNW 8 9 1007.8 - 0.0 - - - - - - -
03/02:00am 6.7 NW 7 9 1008.4 - 0.0 - - - - - - -
03/01:30am 6.5 NNW 7 9 1008.9 - 0.0 - - - - - - -
03/01:00am 8.1 NW 7 9 1009.3 - 0.0 - - - - - - -
03/12:30am 8.0 NW 7 9 1009.6 - 0.0 - - - - - - -
03/12:00am 8.0 NNW 8 9 1010.1 - 0.0 - - - - - - -
 
Date/Time
EST
Temp

°C
Wind Pressure Rain
since 9am
mm
Weather Cloud Vis
km
Sea
Height
m
Swell
Dir
 
Speed
knots
Gust
knots
hPa Trend Height
m
Period
s
Dir
02/11:30pm 7.9 NW 8 9 1010.4 - 0.0 - - - - - - -
02/11:00pm 8.7 NW 7 9 1010.6 - 0.0 - - - - - - -
02/10:30pm 8.6 NW 7 9 1010.5 - 0.0 - - - - - - -
02/10:00pm 8.6 NW 7 9 1010.7 - 0.0 - - - - - - -
02/09:30pm 8.3 NW 6 8 1010.9 - 0.0 - - - - - - -
02/09:00pm 8.3 NW 6 7 1011.1 - 0.0 - - - - - - -

Other Formats:

Comma delimited format used in spreadsheet applications
http://www.bom.gov.au/fwo/IDV60701/IDV60701.94935.axf

JavaScript Object Notation format (JSON) in row-major order
http://www.bom.gov.au/fwo/IDV60701/IDV60701.94935.json